sensor_id;sensor_type;location;lat;lon;timestamp;pressure;altitude;pressure_sealevel;temperature;humidity
8334;BME280;4204;43.004;23.052;2023-11-22T00:00:28;93059.06;;;9.03;100.00
8334;BME280;4204;43.004;23.052;2023-11-22T00:02:55;93061.97;;;9.10;100.00
8334;BME280;4204;43.004;23.052;2023-11-22T00:05:24;93056.59;;;9.47;100.00
8334;BME280;4204;43.004;23.052;2023-11-22T00:07:52;93068.75;;;9.69;100.00
8334;BME280;4204;43.004;23.052;2023-11-22T00:10:20;93070.47;;;9.86;100.00
8334;BME280;4204;43.004;23.052;2023-11-22T00:12:48;93074.88;;;9.82;100.00
8334;BME280;4204;43.004;23.052;2023-11-22T00:15:16;93072.19;;;9.69;100.00
8334;BME280;4204;43.004;23.052;2023-11-22T00:17:45;93059.69;;;9.49;100.00
8334;BME280;4204;43.004;23.052;2023-11-22T00:20:12;93066.16;;;9.40;100.00
8334;BME280;4204;43.004;23.052;2023-11-22T00:22:41;93076.47;;;9.41;100.00
8334;BME280;4204;43.004;23.052;2023-11-22T00:25:11;93070.34;;;9.20;100.00
8334;BME280;4204;43.004;23.052;2023-11-22T00:27:39;93070.91;;;9.05;100.00
8334;BME280;4204;43.004;23.052;2023-11-22T00:30:08;93072.72;;;8.84;100.00
8334;BME280;4204;43.004;23.052;2023-11-22T00:32:37;93069.34;;;8.75;100.00
8334;BME280;4204;43.004;23.052;2023-11-22T00:35:07;93063.44;;;8.69;100.00
8334;BME280;4204;43.004;23.052;2023-11-22T00:37:36;93063.84;;;8.80;100.00
8334;BME280;4204;43.004;23.052;2023-11-22T00:40:06;93065.13;;;9.03;100.00
8334;BME280;4204;43.004;23.052;2023-11-22T00:42:38;93069.19;;;9.01;100.00
8334;BME280;4204;43.004;23.052;2023-11-22T00:45:08;93072.97;;;9.00;100.00
8334;BME280;4204;43.004;23.052;2023-11-22T00:47:37;93065.19;;;8.94;100.00
8334;BME280;4204;43.004;23.052;2023-11-22T00:50:07;93064.81;;;9.05;100.00
8334;BME280;4204;43.004;23.052;2023-11-22T00:52:35;93063.56;;;9.31;100.00
8334;BME280;4204;43.004;23.052;2023-11-22T00:55:03;93053.59;;;9.49;100.00
8334;BME280;4204;43.004;23.052;2023-11-22T00:57:32;93070.38;;;9.61;100.00
8334;BME280;4204;43.004;23.052;2023-11-22T01:00:00;93068.41;;;9.70;100.00
8334;BME280;4204;43.004;23.052;2023-11-22T01:02:30;93061.00;;;9.64;100.00
8334;BME280;4204;43.004;23.052;2023-11-22T01:04:57;93064.72;;;9.63;100.00
8334;BME280;4204;43.004;23.052;2023-11-22T01:07:25;93059.22;;;9.68;100.00
8334;BME280;4204;43.004;23.052;2023-11-22T01:09:53;93062.47;;;9.73;100.00
8334;BME280;4204;43.004;23.052;2023-11-22T01:12:20;93068.22;;;9.75;100.00
8334;BME280;4204;43.004;23.052;2023-11-22T01:14:49;93056.03;;;9.54;100.00
8334;BME280;4204;43.004;23.052;2023-11-22T01:17:18;93048.22;;;9.16;100.00
8334;BME280;4204;43.004;23.052;2023-11-22T01:19:45;93039.72;;;9.02;100.00
8334;BME280;4204;43.004;23.052;2023-11-22T01:22:13;93040.97;;;8.96;100.00
8334;BME280;4204;43.004;23.052;2023-11-22T01:24:40;93053.16;;;8.97;100.00
8334;BME280;4204;43.004;23.052;2023-11-22T01:27:09;93046.81;;;8.89;100.00
8334;BME280;4204;43.004;23.052;2023-11-22T01:29:36;93037.84;;;9.03;100.00
8334;BME280;4204;43.004;23.052;2023-11-22T01:32:05;93038.22;;;8.92;100.00
8334;BME280;4204;43.004;23.052;2023-11-22T01:34:33;93027.97;;;8.82;100.00
8334;BME280;4204;43.004;23.052;2023-11-22T01:37:02;93029.63;;;8.95;100.00
8334;BME280;4204;43.004;23.052;2023-11-22T01:39:30;93025.06;;;8.96;100.00
8334;BME280;4204;43.004;23.052;2023-11-22T01:41:58;93030.16;;;8.80;100.00
8334;BME280;4204;43.004;23.052;2023-11-22T01:44:26;93032.06;;;9.01;100.00
8334;BME280;4204;43.004;23.052;2023-11-22T01:46:55;93022.31;;;9.13;100.00
8334;BME280;4204;43.004;23.052;2023-11-22T01:49:24;93027.75;;;9.17;100.00
8334;BME280;4204;43.004;23.052;2023-11-22T01:51:52;93013.00;;;9.07;100.00
8334;BME280;4204;43.004;23.052;2023-11-22T01:54:22;93004.03;;;9.20;100.00
8334;BME280;4204;43.004;23.052;2023-11-22T01:56:50;93014.56;;;9.08;100.00
8334;BME280;4204;43.004;23.052;2023-11-22T01:59:19;93004.25;;;9.27;100.00
8334;BME280;4204;43.004;23.052;2023-11-22T02:01:48;93006.06;;;9.15;100.00
8334;BME280;4204;43.004;23.052;2023-11-22T02:04:16;92998.25;;;9.18;100.00
8334;BME280;4204;43.004;23.052;2023-11-22T02:06:46;92991.44;;;9.29;100.00
8334;BME280;4204;43.004;23.052;2023-11-22T02:09:14;92996.22;;;9.56;100.00
8334;BME280;4204;43.004;23.052;2023-11-22T02:11:41;92995.59;;;9.59;100.00
8334;BME280;4204;43.004;23.052;2023-11-22T02:14:11;92994.69;;;9.55;100.00
8334;BME280;4204;43.004;23.052;2023-11-22T02:16:39;92987.81;;;9.54;100.00
8334;BME280;4204;43.004;23.052;2023-11-22T02:19:14;92995.84;;;9.46;100.00
8334;BME280;4204;43.004;23.052;2023-11-22T02:21:42;92994.72;;;9.35;100.00
8334;BME280;4204;43.004;23.052;2023-11-22T02:24:11;92994.44;;;9.28;100.00
8334;BME280;4204;43.004;23.052;2023-11-22T02:26:43;93006.47;;;9.25;100.00
8334;BME280;4204;43.004;23.052;2023-11-22T02:29:12;92996.38;;;9.19;100.00
8334;BME280;4204;43.004;23.052;2023-11-22T02:31:41;92984.53;;;9.16;100.00
8334;BME280;4204;43.004;23.052;2023-11-22T02:34:09;92976.38;;;9.01;100.00
8334;BME280;4204;43.004;23.052;2023-11-22T02:36:37;92976.84;;;9.03;100.00
8334;BME280;4204;43.004;23.052;2023-11-22T02:39:05;92971.91;;;9.13;100.00
8334;BME280;4204;43.004;23.052;2023-11-22T02:41:34;92973.44;;;9.23;100.00
8334;BME280;4204;43.004;23.052;2023-11-22T02:44:02;92988.34;;;9.27;100.00
8334;BME280;4204;43.004;23.052;2023-11-22T02:46:33;92977.47;;;9.41;100.00
8334;BME280;4204;43.004;23.052;2023-11-22T02:49:00;92987.69;;;9.51;100.00
8334;BME280;4204;43.004;23.052;2023-11-22T02:51:28;92986.19;;;9.62;100.00
8334;BME280;4204;43.004;23.052;2023-11-22T02:53:57;92981.94;;;9.82;100.00
8334;BME280;4204;43.004;23.052;2023-11-22T02:56:24;92983.94;;;9.52;100.00
8334;BME280;4204;43.004;23.052;2023-11-22T02:58:53;92990.81;;;9.32;100.00
8334;BME280;4204;43.004;23.052;2023-11-22T03:01:22;93006.53;;;9.17;100.00
8334;BME280;4204;43.004;23.052;2023-11-22T03:03:49;93005.16;;;8.90;100.00
8334;BME280;4204;43.004;23.052;2023-11-22T03:06:17;93007.16;;;8.93;100.00
8334;BME280;4204;43.004;23.052;2023-11-22T03:08:45;93009.25;;;8.87;100.00
8334;BME280;4204;43.004;23.052;2023-11-22T03:11:12;92995.19;;;8.87;100.00
8334;BME280;4204;43.004;23.052;2023-11-22T03:13:40;93000.44;;;8.95;100.00
8334;BME280;4204;43.004;23.052;2023-11-22T03:16:11;93006.06;;;9.15;100.00
8334;BME280;4204;43.004;23.052;2023-11-22T03:18:39;93003.25;;;9.20;100.00
8334;BME280;4204;43.004;23.052;2023-11-22T03:21:08;93002.16;;;9.21;100.00
8334;BME280;4204;43.004;23.052;2023-11-22T03:23:36;92995.28;;;9.20;100.00
8334;BME280;4204;43.004;23.052;2023-11-22T03:26:04;93001.03;;;9.22;100.00
8334;BME280;4204;43.004;23.052;2023-11-22T03:28:32;93001.47;;;9.44;100.00
8334;BME280;4204;43.004;23.052;2023-11-22T03:31:00;92999.09;;;9.51;100.00
8334;BME280;4204;43.004;23.052;2023-11-22T03:33:30;92999.97;;;9.76;100.00
8334;BME280;4204;43.004;23.052;2023-11-22T03:35:58;93002.03;;;9.70;100.00
8334;BME280;4204;43.004;23.052;2023-11-22T03:38:25;93000.38;;;9.66;100.00
8334;BME280;4204;43.004;23.052;2023-11-22T03:40:53;93006.88;;;9.68;100.00
8334;BME280;4204;43.004;23.052;2023-11-22T03:43:21;93005.47;;;9.71;100.00
8334;BME280;4204;43.004;23.052;2023-11-22T03:45:48;93002.03;;;9.70;100.00
8334;BME280;4204;43.004;23.052;2023-11-22T03:48:16;93008.47;;;9.69;100.00
8334;BME280;4204;43.004;23.052;2023-11-22T03:50:45;93016.56;;;9.52;100.00
8334;BME280;4204;43.004;23.052;2023-11-22T03:53:13;93016.69;;;9.35;100.00
8334;BME280;4204;43.004;23.052;2023-11-22T03:55:40;93015.66;;;9.28;100.00
8334;BME280;4204;43.004;23.052;2023-11-22T03:58:08;93015.53;;;9.24;100.00
8334;BME280;4204;43.004;23.052;2023-11-22T04:00:36;93010.63;;;9.14;100.00
8334;BME280;4204;43.004;23.052;2023-11-22T04:03:03;93022.31;;;9.13;100.00
8334;BME280;4204;43.004;23.052;2023-11-22T04:05:31;93026.84;;;9.13;100.00
8334;BME280;4204;43.004;23.052;2023-11-22T04:08:00;93021.63;;;9.04;100.00
8334;BME280;4204;43.004;23.052;2023-11-22T04:10:28;93022.63;;;8.91;100.00
8334;BME280;4204;43.004;23.052;2023-11-22T04:12:57;93024.69;;;8.85;100.00
8334;BME280;4204;43.004;23.052;2023-11-22T04:15:26;93028.88;;;8.86;100.00
8334;BME280;4204;43.004;23.052;2023-11-22T04:17:54;93029.63;;;8.95;100.00
8334;BME280;4204;43.004;23.052;2023-11-22T04:20:21;93034.94;;;9.16;100.00
8334;BME280;4204;43.004;23.052;2023-11-22T04:22:49;93042.19;;;9.28;100.00
8334;BME280;4204;43.004;23.052;2023-11-22T04:25:18;93040.22;;;9.45;100.00
8334;BME280;4204;43.004;23.052;2023-11-22T04:27:46;93054.44;;;9.41;100.00
8334;BME280;4204;43.004;23.052;2023-11-22T04:30:14;93041.56;;;9.51;100.00
8334;BME280;4204;43.004;23.052;2023-11-22T04:32:43;93052.75;;;9.57;100.00
8334;BME280;4204;43.004;23.052;2023-11-22T04:35:11;93058.34;;;9.64;100.00
8334;BME280;4204;43.004;23.052;2023-11-22T04:37:39;93061.06;;;9.55;100.00
8334;BME280;4204;43.004;23.052;2023-11-22T04:40:07;93059.09;;;9.64;100.00
8334;BME280;4204;43.004;23.052;2023-11-22T04:42:39;93073.09;;;9.53;100.00
8334;BME280;4204;43.004;23.052;2023-11-22T04:45:07;93065.91;;;9.53;100.00
8334;BME280;4204;43.004;23.052;2023-11-22T04:47:36;93077.75;;;9.76;100.00
8334;BME280;4204;43.004;23.052;2023-11-22T04:50:04;93083.44;;;9.66;100.00
8334;BME280;4204;43.004;23.052;2023-11-22T04:52:32;93088.91;;;9.20;100.00
8334;BME280;4204;43.004;23.052;2023-11-22T04:55:00;93086.47;;;9.07;100.00
8334;BME280;4204;43.004;23.052;2023-11-22T04:57:27;93088.59;;;8.92;100.00
8334;BME280;4204;43.004;23.052;2023-11-22T04:59:56;93104.56;;;9.13;100.00
8334;BME280;4204;43.004;23.052;2023-11-22T05:02:26;93097.66;;;9.21;100.00
8334;BME280;4204;43.004;23.052;2023-11-22T05:04:54;93112.09;;;9.32;100.00
8334;BME280;4204;43.004;23.052;2023-11-22T05:07:23;93124.34;;;9.45;100.00
8334;BME280;4204;43.004;23.052;2023-11-22T05:09:50;93127.59;;;9.50;100.00
8334;BME280;4204;43.004;23.052;2023-11-22T05:12:18;93134.34;;;9.68;100.00
8334;BME280;4204;43.004;23.052;2023-11-22T05:14:46;93139.47;;;9.73;100.00
8334;BME280;4204;43.004;23.052;2023-11-22T05:17:15;93150.53;;;9.75;100.00
8334;BME280;4204;43.004;23.052;2023-11-22T05:19:43;93151.09;;;9.60;100.00
8334;BME280;4204;43.004;23.052;2023-11-22T05:22:11;93154.22;;;9.33;100.00
8334;BME280;4204;43.004;23.052;2023-11-22T05:24:38;93149.97;;;9.12;100.00
8334;BME280;4204;43.004;23.052;2023-11-22T05:27:07;93160.00;;;9.06;100.00
8334;BME280;4204;43.004;23.052;2023-11-22T05:29:35;93164.91;;;8.87;100.00
8334;BME280;4204;43.004;23.052;2023-11-22T05:32:04;93167.41;;;8.83;100.00
8334;BME280;4204;43.004;23.052;2023-11-22T05:34:34;93176.44;;;8.91;100.00
8334;BME280;4204;43.004;23.052;2023-11-22T05:37:11;93176.41;;;9.00;100.00
8334;BME280;4204;43.004;23.052;2023-11-22T05:39:40;93176.59;;;9.24;100.00
8334;BME280;4204;43.004;23.052;2023-11-22T05:42:07;93173.53;;;9.13;100.00
8334;BME280;4204;43.004;23.052;2023-11-22T05:44:35;93176.44;;;8.82;100.00
8334;BME280;4204;43.004;23.052;2023-11-22T05:47:03;93177.84;;;8.88;100.00
8334;BME280;4204;43.004;23.052;2023-11-22T05:49:31;93181.00;;;8.73;100.00
8334;BME280;4204;43.004;23.052;2023-11-22T05:52:00;93175.50;;;8.87;100.00
8334;BME280;4204;43.004;23.052;2023-11-22T05:54:28;93188.53;;;9.09;100.00
8334;BME280;4204;43.004;23.052;2023-11-22T05:56:58;93191.13;;;9.26;100.00
8334;BME280;4204;43.004;23.052;2023-11-22T05:59:25;93200.91;;;9.34;100.00
8334;BME280;4204;43.004;23.052;2023-11-22T06:01:53;93207.31;;;9.33;100.00
8334;BME280;4204;43.004;23.052;2023-11-22T06:04:21;93207.94;;;9.30;100.00
8334;BME280;4204;43.004;23.052;2023-11-22T06:06:48;93213.38;;;9.34;100.00
8334;BME280;4204;43.004;23.052;2023-11-22T06:09:23;93212.72;;;9.45;100.00
8334;BME280;4204;43.004;23.052;2023-11-22T06:11:50;93204.06;;;9.28;100.00
8334;BME280;4204;43.004;23.052;2023-11-22T06:14:21;93219.22;;;9.19;100.00
8334;BME280;4204;43.004;23.052;2023-11-22T06:16:48;93221.41;;;9.17;100.00
8334;BME280;4204;43.004;23.052;2023-11-22T06:19:16;93218.91;;;9.29;100.00
8334;BME280;4204;43.004;23.052;2023-11-22T06:21:44;93227.78;;;9.33;100.00
8334;BME280;4204;43.004;23.052;2023-11-22T06:24:12;93229.19;;;9.30;100.00
8334;BME280;4204;43.004;23.052;2023-11-22T06:26:44;93223.97;;;8.96;100.00
8334;BME280;4204;43.004;23.052;2023-11-22T06:29:12;93233.84;;;8.87;100.00
8334;BME280;4204;43.004;23.052;2023-11-22T06:31:40;93236.53;;;8.70;100.00
8334;BME280;4204;43.004;23.052;2023-11-22T06:34:08;93225.44;;;8.85;100.00
8334;BME280;4204;43.004;23.052;2023-11-22T06:36:36;93232.38;;;9.07;100.00
8334;BME280;4204;43.004;23.052;2023-11-22T06:39:04;93226.88;;;9.20;100.00
8334;BME280;4204;43.004;23.052;2023-11-22T06:41:32;93236.34;;;9.30;100.00
8334;BME280;4204;43.004;23.052;2023-11-22T06:44:01;93244.00;;;9.31;100.00
8334;BME280;4204;43.004;23.052;2023-11-22T06:46:29;93230.00;;;9.22;100.00
8334;BME280;4204;43.004;23.052;2023-11-22T06:48:57;93233.09;;;9.24;100.00
8334;BME280;4204;43.004;23.052;2023-11-22T06:51:25;93230.00;;;9.22;100.00
8334;BME280;4204;43.004;23.052;2023-11-22T06:53:52;93241.41;;;9.23;100.00
8334;BME280;4204;43.004;23.052;2023-11-22T06:56:20;93244.31;;;9.30;100.00
8334;BME280;4204;43.004;23.052;2023-11-22T06:58:49;93244.78;;;9.32;100.00
8334;BME280;4204;43.004;23.052;2023-11-22T07:01:22;93264.28;;;9.36;100.00
8334;BME280;4204;43.004;23.052;2023-11-22T07:03:52;93273.19;;;9.31;100.00
8334;BME280;4204;43.004;23.052;2023-11-22T07:06:20;93280.97;;;9.36;100.00
8334;BME280;4204;43.004;23.052;2023-11-22T07:08:48;93287.84;;;9.37;100.00
8334;BME280;4204;43.004;23.052;2023-11-22T07:11:23;93278.31;;;9.45;100.00
8334;BME280;4204;43.004;23.052;2023-11-22T07:13:52;93289.28;;;9.26;100.00
8334;BME280;4204;43.004;23.052;2023-11-22T07:16:21;93291.94;;;9.26;100.00
8334;BME280;4204;43.004;23.052;2023-11-22T07:18:49;93309.75;;;9.17;100.00
8334;BME280;4204;43.004;23.052;2023-11-22T07:21:17;93304.28;;;9.22;100.00
8334;BME280;4204;43.004;23.052;2023-11-22T07:23:45;93306.00;;;9.27;100.00
8334;BME280;4204;43.004;23.052;2023-11-22T07:26:13;93298.97;;;9.22;100.00
8334;BME280;4204;43.004;23.052;2023-11-22T07:28:41;93305.06;;;9.23;100.00
8334;BME280;4204;43.004;23.052;2023-11-22T07:31:09;93298.34;;;9.25;100.00
8334;BME280;4204;43.004;23.052;2023-11-22T07:33:39;93303.47;;;9.39;100.00
8334;BME280;4204;43.004;23.052;2023-11-22T07:36:07;93309.06;;;9.37;100.00
8334;BME280;4204;43.004;23.052;2023-11-22T07:38:35;93310.47;;;9.43;100.00
8334;BME280;4204;43.004;23.052;2023-11-22T07:41:03;93295.47;;;9.47;100.00
8334;BME280;4204;43.004;23.052;2023-11-22T07:43:31;93307.66;;;9.40;100.00
8334;BME280;4204;43.004;23.052;2023-11-22T07:45:57;93303.91;;;9.41;100.00
8334;BME280;4204;43.004;23.052;2023-11-22T07:48:26;93301.88;;;9.38;100.00
8334;BME280;4204;43.004;23.052;2023-11-22T07:50:55;93300.47;;;9.40;100.00
8334;BME280;4204;43.004;23.052;2023-11-22T07:53:43;93308.78;;;9.30;100.00
8334;BME280;4204;43.004;23.052;2023-11-22T07:56:11;93304.88;;;9.28;100.00
8334;BME280;4204;43.004;23.052;2023-11-22T07:58:39;93307.53;;;9.28;100.00
8334;BME280;4204;43.004;23.052;2023-11-22T08:01:07;93306.13;;;9.30;100.00
8334;BME280;4204;43.004;23.052;2023-11-22T08:03:39;93306.75;;;9.36;100.00
8334;BME280;4204;43.004;23.052;2023-11-22T08:06:13;93303.13;;;9.40;100.00
8334;BME280;4204;43.004;23.052;2023-11-22T08:08:41;93300.34;;;9.37;100.00
8334;BME280;4204;43.004;23.052;2023-11-22T08:11:12;93302.69;;;9.38;100.00
8334;BME280;4204;43.004;23.052;2023-11-22T08:13:42;93300.63;;;9.35;100.00
8334;BME280;4204;43.004;23.052;2023-11-22T08:16:11;93311.88;;;9.41;100.00
8334;BME280;4204;43.004;23.052;2023-11-22T08:18:39;93302.34;;;9.40;100.00
8334;BME280;4204;43.004;23.052;2023-11-22T08:21:09;93308.13;;;9.42;100.00
8334;BME280;4204;43.004;23.052;2023-11-22T08:23:38;93313.53;;;9.54;100.00
8334;BME280;4204;43.004;23.052;2023-11-22T08:26:06;93307.97;;;9.47;100.00
8334;BME280;4204;43.004;23.052;2023-11-22T08:28:35;93323.41;;;9.53;100.00
8334;BME280;4204;43.004;23.052;2023-11-22T08:31:02;93323.88;;;9.55;100.00
8334;BME280;4204;43.004;23.052;2023-11-22T08:33:31;93313.84;;;9.61;100.00
8334;BME280;4204;43.004;23.052;2023-11-22T08:36:00;93323.66;;;9.60;100.00
8334;BME280;4204;43.004;23.052;2023-11-22T08:38:31;93323.84;;;9.64;100.00
8334;BME280;4204;43.004;23.052;2023-11-22T08:41:13;93324.09;;;9.71;100.00
8334;BME280;4204;43.004;23.052;2023-11-22T08:43:46;93326.31;;;9.69;100.00
8334;BME280;4204;43.004;23.052;2023-11-22T08:46:18;93323.50;;;9.65;100.00
8334;BME280;4204;43.004;23.052;2023-11-22T08:48:46;93319.59;;;9.63;100.00
8334;BME280;4204;43.004;23.052;2023-11-22T08:51:17;93327.56;;;9.63;100.00
8334;BME280;4204;43.004;23.052;2023-11-22T08:53:45;93328.69;;;9.62;100.00
8334;BME280;4204;43.004;23.052;2023-11-22T08:56:16;93328.34;;;9.63;100.00
8334;BME280;4204;43.004;23.052;2023-11-22T08:58:46;93344.09;;;9.68;100.00
8334;BME280;4204;43.004;23.052;2023-11-22T09:01:15;93339.41;;;9.74;100.00
8334;BME280;4204;43.004;23.052;2023-11-22T09:03:45;93339.25;;;9.70;100.00
8334;BME280;4204;43.004;23.052;2023-11-22T09:06:13;93339.13;;;9.67;100.00
8334;BME280;4204;43.004;23.052;2023-11-22T09:08:42;93335.88;;;9.61;100.00
8334;BME280;4204;43.004;23.052;2023-11-22T09:11:12;93330.38;;;9.66;100.00
8334;BME280;4204;43.004;23.052;2023-11-22T09:13:43;93329.25;;;9.76;100.00
8334;BME280;4204;43.004;23.052;2023-11-22T09:16:11;93327.53;;;9.71;100.00
8334;BME280;4204;43.004;23.052;2023-11-22T09:18:39;93322.66;;;9.82;100.00
8334;BME280;4204;43.004;23.052;2023-11-22T09:21:06;93318.19;;;9.65;100.00
8334;BME280;4204;43.004;23.052;2023-11-22T09:23:35;93326.59;;;9.76;100.00
8334;BME280;4204;43.004;23.052;2023-11-22T09:26:03;93331.44;;;9.74;100.00
8334;BME280;4204;43.004;23.052;2023-11-22T09:28:31;93331.91;;;9.76;100.00
8334;BME280;4204;43.004;23.052;2023-11-22T09:31:00;93328.56;;;9.88;100.00
8334;BME280;4204;43.004;23.052;2023-11-22T09:33:32;93321.53;;;9.83;100.00
8334;BME280;4204;43.004;23.052;2023-11-22T09:36:00;93324.31;;;9.95;100.00
8334;BME280;4204;43.004;23.052;2023-11-22T09:38:30;93331.78;;;10.02;100.00
8334;BME280;4204;43.004;23.052;2023-11-22T09:40:58;93331.13;;;10.05;100.00
8334;BME280;4204;43.004;23.052;2023-11-22T09:43:26;93332.69;;;10.06;100.00
8334;BME280;4204;43.004;23.052;2023-11-22T09:45:55;93334.78;;;9.92;100.00
8334;BME280;4204;43.004;23.052;2023-11-22T09:48:24;93328.66;;;10.00;100.00
8334;BME280;4204;43.004;23.052;2023-11-22T09:50:57;93335.78;;;10.08;100.00
8334;BME280;4204;43.004;23.052;2023-11-22T09:53:31;93331.75;;;10.10;100.00
8334;BME280;4204;43.004;23.052;2023-11-22T09:56:01;93333.59;;;10.10;100.00
8334;BME280;4204;43.004;23.052;2023-11-22T09:58:30;93332.38;;;10.07;100.00
8334;BME280;4204;43.004;23.052;2023-11-22T10:00:59;93328.63;;;10.08;100.00
8334;BME280;4204;43.004;23.052;2023-11-22T10:03:28;93332.16;;;10.21;100.00
8334;BME280;4204;43.004;23.052;2023-11-22T10:05:56;93324.25;;;10.04;100.00
8334;BME280;4204;43.004;23.052;2023-11-22T10:08:25;93326.97;;;9.95;100.00
8334;BME280;4204;43.004;23.052;2023-11-22T10:10:56;93337.28;;;9.97;100.00
8334;BME280;4204;43.004;23.052;2023-11-22T10:13:23;93328.69;;;9.91;100.00
8334;BME280;4204;43.004;23.052;2023-11-22T10:15:52;93329.91;;;10.02;100.00
8334;BME280;4204;43.004;23.052;2023-11-22T10:18:21;93333.13;;;10.08;100.00
8334;BME280;4204;43.004;23.052;2023-11-22T10:20:52;93325.94;;;10.17;100.00
8334;BME280;4204;43.004;23.052;2023-11-22T10:23:20;93336.13;;;10.15;100.00
8334;BME280;4204;43.004;23.052;2023-11-22T10:25:52;93326.53;;;10.22;100.00
8334;BME280;4204;43.004;23.052;2023-11-22T10:28:21;93328.28;;;10.18;100.00
8334;BME280;4204;43.004;23.052;2023-11-22T10:30:50;93341.72;;;10.22;100.00
8334;BME280;4204;43.004;23.052;2023-11-22T10:33:19;93334.97;;;10.24;100.00
8334;BME280;4204;43.004;23.052;2023-11-22T10:35:52;93337.56;;;10.33;100.00
8334;BME280;4204;43.004;23.052;2023-11-22T10:38:20;93326.03;;;10.29;100.00
8334;BME280;4204;43.004;23.052;2023-11-22T10:40:48;93332.28;;;10.24;100.00
8334;BME280;4204;43.004;23.052;2023-11-22T10:43:19;93341.91;;;10.37;100.00
8334;BME280;4204;43.004;23.052;2023-11-22T10:45:50;93339.72;;;10.39;100.00
8334;BME280;4204;43.004;23.052;2023-11-22T10:48:21;93346.91;;;10.39;100.00
8334;BME280;4204;43.004;23.052;2023-11-22T10:50:53;93345.50;;;10.41;100.00
8334;BME280;4204;43.004;23.052;2023-11-22T10:53:31;93349.28;;;10.40;100.00
8334;BME280;4204;43.004;23.052;2023-11-22T10:56:05;93343.50;;;10.38;100.00
8334;BME280;4204;43.004;23.052;2023-11-22T10:58:42;93353.50;;;10.33;100.00
8334;BME280;4204;43.004;23.052;2023-11-22T11:01:13;93341.00;;;10.33;100.00
8334;BME280;4204;43.004;23.052;2023-11-22T11:03:46;93348.03;;;10.38;100.00
8334;BME280;4204;43.004;23.052;2023-11-22T11:06:20;93352.19;;;10.47;100.00
8334;BME280;4204;43.004;23.052;2023-11-22T11:08:55;93333.00;;;10.42;100.00
8334;BME280;4204;43.004;23.052;2023-11-22T11:11:25;93341.25;;;10.49;100.00
8334;BME280;4204;43.004;23.052;2023-11-22T11:13:53;93342.31;;;10.48;100.00
8334;BME280;4204;43.004;23.052;2023-11-22T11:16:21;93341.53;;;10.47;100.00
8334;BME280;4204;43.004;23.052;2023-11-22T11:18:50;93355.94;;;10.46;100.00
8334;BME280;4204;43.004;23.052;2023-11-22T11:21:19;93347.66;;;10.48;100.00
8334;BME280;4204;43.004;23.052;2023-11-22T11:23:47;93349.41;;;10.44;100.00
8334;BME280;4204;43.004;23.052;2023-11-22T11:26:21;93350.19;;;10.44;100.00
8334;BME280;4204;43.004;23.052;2023-11-22T11:28:50;93350.75;;;10.50;100.00
8334;BME280;4204;43.004;23.052;2023-11-22T11:31:33;93354.31;;;10.54;100.00
8334;BME280;4204;43.004;23.052;2023-11-22T11:34:05;93359.38;;;10.47;100.00
8334;BME280;4204;43.004;23.052;2023-11-22T11:36:37;93358.34;;;10.39;100.00
8334;BME280;4204;43.004;23.052;2023-11-22T11:39:06;93351.31;;;10.35;100.00
8334;BME280;4204;43.004;23.052;2023-11-22T11:41:35;93351.78;;;10.37;100.00
8334;BME280;4204;43.004;23.052;2023-11-22T11:44:07;93356.59;;;10.43;100.00
8334;BME280;4204;43.004;23.052;2023-11-22T11:46:37;93350.22;;;10.36;100.00
8334;BME280;4204;43.004;23.052;2023-11-22T11:49:07;93355.78;;;10.43;100.00
8334;BME280;4204;43.004;23.052;2023-11-22T11:51:36;93351.06;;;10.28;100.00
8334;BME280;4204;43.004;23.052;2023-11-22T11:54:05;93350.00;;;10.20;100.00
8334;BME280;4204;43.004;23.052;2023-11-22T11:56:34;93346.31;;;10.33;100.00
8334;BME280;4204;43.004;23.052;2023-11-22T11:59:02;93366.50;;;10.34;100.00
8334;BME280;4204;43.004;23.052;2023-11-22T12:01:30;93364.88;;;10.42;100.00
8334;BME280;4204;43.004;23.052;2023-11-22T12:04:00;93370.63;;;10.52;100.00
8334;BME280;4204;43.004;23.052;2023-11-22T12:06:28;93368.75;;;10.53;100.00
8334;BME280;4204;43.004;23.052;2023-11-22T12:08:58;93374.44;;;10.64;100.00
8334;BME280;4204;43.004;23.052;2023-11-22T12:11:26;93373.53;;;10.59;100.00
8334;BME280;4204;43.004;23.052;2023-11-22T12:13:55;93378.84;;;10.59;100.00
8334;BME280;4204;43.004;23.052;2023-11-22T12:16:23;93382.63;;;10.58;100.00
8334;BME280;4204;43.004;23.052;2023-11-22T12:18:50;93392.47;;;10.58;100.00
8334;BME280;4204;43.004;23.052;2023-11-22T12:21:18;93393.25;;;10.58;100.00
8334;BME280;4204;43.004;23.052;2023-11-22T12:23:47;93395.78;;;10.55;100.00
8334;BME280;4204;43.004;23.052;2023-11-22T12:26:17;93389.81;;;10.58;100.00
8334;BME280;4204;43.004;23.052;2023-11-22T12:28:46;93394.50;;;10.61;100.00
8334;BME280;4204;43.004;23.052;2023-11-22T12:31:15;93390.25;;;10.60;100.00
8334;BME280;4204;43.004;23.052;2023-11-22T12:33:43;93394.53;;;10.52;100.00
8334;BME280;4204;43.004;23.052;2023-11-22T12:36:12;93398.63;;;10.50;100.00
8334;BME280;4204;43.004;23.052;2023-11-22T12:38:42;93389.72;;;10.46;100.00
8334;BME280;4204;43.004;23.052;2023-11-22T12:41:10;93389.41;;;10.47;100.00
8334;BME280;4204;43.004;23.052;2023-11-22T12:43:40;93398.16;;;10.48;100.00
8334;BME280;4204;43.004;23.052;2023-11-22T12:46:07;93406.97;;;10.40;100.00
8334;BME280;4204;43.004;23.052;2023-11-22T12:48:39;93409.63;;;10.40;100.00
8334;BME280;4204;43.004;23.052;2023-11-22T12:51:14;93402.69;;;10.47;100.00
8334;BME280;4204;43.004;23.052;2023-11-22T12:53:45;93405.97;;;10.53;100.00
8334;BME280;4204;43.004;23.052;2023-11-22T12:56:14;93409.59;;;10.48;100.00
8334;BME280;4204;43.004;23.052;2023-11-22T12:58:43;93418.00;;;10.50;100.00
8334;BME280;4204;43.004;23.052;2023-11-22T13:01:11;93417.22;;;10.50;100.00
8334;BME280;4204;43.004;23.052;2023-11-22T13:03:39;93415.19;;;10.47;100.00
8334;BME280;4204;43.004;23.052;2023-11-22T13:06:08;93415.53;;;10.45;100.00
8334;BME280;4204;43.004;23.052;2023-11-22T13:08:35;93411.31;;;10.44;100.00
8334;BME280;4204;43.004;23.052;2023-11-22T13:11:03;93423.19;;;10.47;100.00
8334;BME280;4204;43.004;23.052;2023-11-22T13:13:33;93424.34;;;10.37;100.00
8334;BME280;4204;43.004;23.052;2023-11-22T13:16:04;93415.06;;;10.43;100.00